createdAt,value
2022-12-08T00:46:19.086Z,56.97
2022-12-08T00:51:26.475Z,78.30
2022-12-08T00:56:50.905Z,56.20
2022-12-08T01:02:08.007Z,44.08
2022-12-08T01:07:30.261Z,47.95
2022-12-08T01:12:36.395Z,43.35
2022-12-08T01:17:52.987Z,43.40
2022-12-08T01:22:59.245Z,46.42
2022-12-08T01:28:03.069Z,46.05
2022-12-08T01:33:09.037Z,53.22
2022-12-08T01:38:16.460Z,47.97
2022-12-08T01:43:25.079Z,50.97
2022-12-08T01:48:29.216Z,48.22
2022-12-08T01:53:48.545Z,42.88
2022-12-08T01:58:59.387Z,73.13
2022-12-08T02:04:16.222Z,50.78
2022-12-08T02:09:22.871Z,45.13
2022-12-08T02:14:29.678Z,55.40
2022-12-08T02:20:16.215Z,51.30
2022-12-08T02:25:38.753Z,51.17
2022-12-08T02:30:51.034Z,51.22
2022-12-08T02:36:22.333Z,59.58
2022-12-08T02:41:38.272Z,48.95
2022-12-08T02:46:53.130Z,45.72
2022-12-08T02:51:58.587Z,48.03
2022-12-08T02:57:44.847Z,45.20
2022-12-08T03:03:46.726Z,43.55
2022-12-08T03:09:07.625Z,43.80
2022-12-08T03:14:28.912Z,49.22
2022-12-08T03:19:53.456Z,52.20
2022-12-08T03:33:27.475Z,44.13
2022-12-08T03:51:36.774Z,52.80
2022-12-08T04:09:47.064Z,48.50
2022-12-08T04:15:58.456Z,48.75
2022-12-08T04:21:16.649Z,41.75
2022-12-08T04:26:54.854Z,39.25
2022-12-08T04:44:05.209Z,31.30
2022-12-08T04:49:30.534Z,27.75
2022-12-08T04:54:33.973Z,28.42
2022-12-08T05:00:21.056Z,31.38
2022-12-08T05:20:50.728Z,48.92
2022-12-08T05:26:00.773Z,34.08
2022-12-08T05:31:00.536Z,23.15
2022-12-08T05:35:59.578Z,24.55
2022-12-08T05:40:58.739Z,30.48
2022-12-08T05:45:59.233Z,25.80
2022-12-08T05:50:58.141Z,29.40
2022-12-08T05:55:57.223Z,28.00
2022-12-08T06:00:59.095Z,32.45
2022-12-08T06:06:01.542Z,37.83
2022-12-08T06:11:03.615Z,29.17
2022-12-08T06:16:07.521Z,27.25
2022-12-08T06:21:13.384Z,32.65
2022-12-08T06:26:16.727Z,73.70
2022-12-08T06:31:22.671Z,32.03
2022-12-08T06:36:24.620Z,32.20
2022-12-08T06:41:24.193Z,44.70
2022-12-08T06:46:29.291Z,34.92
2022-12-08T06:51:28.453Z,32.70
2022-12-08T06:56:28.297Z,39.65
2022-12-08T07:01:34.933Z,40.35
2022-12-08T07:06:34.267Z,38.28
2022-12-08T07:11:35.792Z,36.70
2022-12-08T07:16:36.812Z,50.45
2022-12-08T07:21:35.912Z,47.88
2022-12-08T07:26:35.319Z,46.90
2022-12-08T07:31:36.219Z,48.40
2022-12-08T07:36:43.214Z,46.00
2022-12-08T07:42:45.385Z,38.58
2022-12-08T07:49:27.201Z,39.60
2022-12-08T10:36:24.014Z,56.10
2022-12-08T10:41:50.482Z,41.58
2022-12-08T10:54:58.561Z,36.50
2022-12-08T11:08:18.460Z,37.95
2022-12-08T11:13:23.424Z,51.80
2022-12-08T11:18:27.128Z,49.53
2022-12-08T11:23:28.192Z,49.13
2022-12-08T11:28:28.709Z,49.35
2022-12-08T11:33:29.399Z,50.25
2022-12-08T11:38:29.746Z,57.25
2022-12-08T11:43:41.052Z,62.35
2022-12-08T11:48:48.756Z,58.17
2022-12-08T11:53:59.120Z,59.92
2022-12-08T11:59:03.867Z,57.85
2022-12-08T12:04:17.208Z,58.83
2022-12-08T12:09:21.015Z,50.53
2022-12-08T12:14:44.793Z,55.95
2022-12-08T12:24:47.746Z,54.00
2022-12-08T12:29:55.729Z,49.00
2022-12-08T12:34:58.560Z,52.85
2022-12-08T12:40:03.292Z,61.03
2022-12-08T12:45:29.553Z,56.83
2022-12-08T12:50:44.240Z,51.90
2022-12-08T12:55:55.350Z,53.05
2022-12-08T13:01:37.215Z,57.50
2022-12-08T13:06:42.950Z,53.53
2022-12-08T13:11:49.911Z,49.72
2022-12-08T13:16:56.385Z,46.25
2022-12-08T13:21:55.408Z,55.45
2022-12-08T13:27:35.638Z,52.67
2022-12-08T13:33:17.583Z,48.90
2022-12-08T13:38:21.050Z,44.58
2022-12-08T13:43:50.981Z,40.42
2022-12-08T13:59:47.058Z,42.70
2022-12-08T14:10:14.362Z,44.05
2022-12-08T14:15:17.902Z,43.13
2022-12-08T14:20:25.629Z,45.85
2022-12-08T14:25:25.659Z,42.83
2022-12-08T14:30:30.688Z,41.78
2022-12-08T14:35:33.485Z,36.67
2022-12-08T14:40:35.462Z,35.72
2022-12-08T14:45:35.585Z,32.95
2022-12-08T14:50:43.613Z,32.20
2022-12-08T14:55:44.901Z,35.17
2022-12-08T15:00:48.452Z,30.85
2022-12-08T15:05:56.889Z,40.75
2022-12-08T15:11:15.313Z,29.25
2022-12-08T15:16:28.358Z,35.58
2022-12-08T15:21:36.990Z,29.27
2022-12-08T15:26:41.319Z,33.70
2022-12-08T15:31:41.140Z,32.95
2022-12-08T15:36:43.181Z,39.65
2022-12-08T15:41:42.332Z,33.00
2022-12-08T15:46:41.620Z,33.78
2022-12-08T15:51:42.603Z,31.73
2022-12-08T15:57:17.195Z,32.60
2022-12-08T16:02:08.329Z,33.33
2022-12-08T16:07:22.534Z,32.77
2022-12-08T16:18:04.525Z,36.05
2022-12-08T16:23:19.728Z,31.23
2022-12-08T16:28:53.290Z,27.83
2022-12-08T16:33:52.646Z,26.67
2022-12-08T16:38:53.707Z,34.67
2022-12-08T16:43:53.705Z,34.88
2022-12-08T16:48:56.942Z,44.33
2022-12-08T16:59:01.256Z,36.50
2022-12-08T17:09:31.142Z,33.35
2022-12-08T17:14:35.120Z,36.90
2022-12-08T17:19:35.850Z,38.13
2022-12-08T17:24:52.031Z,39.53
2022-12-08T17:29:51.349Z,35.90
2022-12-08T17:34:50.460Z,36.80
2022-12-08T17:39:51.044Z,47.20
2022-12-08T17:44:51.349Z,34.58
2022-12-08T17:49:54.274Z,40.65
2022-12-08T17:55:00.516Z,39.10
2022-12-08T18:00:09.129Z,47.35
2022-12-08T18:05:13.021Z,44.80
2022-12-08T18:10:14.130Z,42.60
2022-12-08T18:15:20.819Z,42.00
2022-12-08T18:20:21.622Z,41.03
2022-12-08T18:25:25.073Z,41.13
2022-12-08T18:35:27.363Z,38.78
2022-12-08T18:40:28.542Z,43.25
2022-12-08T18:45:27.766Z,42.97
2022-12-08T18:50:30.240Z,45.17
2022-12-08T18:55:33.719Z,54.20
2022-12-08T19:00:32.897Z,57.35
2022-12-08T19:05:32.253Z,51.05
2022-12-08T19:10:32.490Z,57.03
2022-12-08T19:15:33.458Z,50.53
2022-12-08T19:20:32.789Z,56.72
2022-12-08T19:25:35.401Z,39.42
2022-12-08T19:30:39.778Z,53.33
2022-12-08T19:35:49.048Z,45.20
2022-12-08T19:41:08.850Z,41.58
2022-12-08T19:46:19.421Z,38.45
2022-12-08T19:51:20.922Z,40.90
2022-12-08T19:56:20.133Z,39.03
2022-12-08T20:01:21.925Z,40.35
2022-12-08T20:06:32.670Z,44.70
2022-12-08T20:11:31.892Z,34.03
2022-12-08T20:16:45.971Z,38.35
2022-12-08T20:22:17.924Z,42.70
2022-12-08T20:27:17.203Z,39.65
2022-12-08T20:32:18.835Z,39.97
2022-12-08T20:37:20.612Z,41.15
2022-12-08T20:42:24.261Z,39.50
2022-12-08T20:47:27.876Z,32.88
2022-12-08T20:52:30.720Z,38.55
2022-12-08T20:57:30.073Z,32.83
2022-12-08T21:02:33.685Z,38.17
2022-12-08T21:07:33.957Z,34.42
2022-12-08T21:12:33.692Z,38.45
2022-12-08T21:17:36.864Z,36.50
2022-12-08T21:22:36.171Z,36.05
2022-12-08T21:27:35.440Z,36.35
2022-12-08T21:32:36.701Z,39.28
2022-12-08T21:37:38.361Z,41.88
2022-12-08T21:42:47.256Z,46.97
2022-12-08T21:47:50.076Z,39.67
2022-12-08T21:52:50.457Z,63.30
2022-12-08T21:58:09.365Z,43.08
2022-12-08T22:03:14.218Z,44.17
2022-12-08T22:09:29.740Z,45.33
2022-12-08T22:14:29.487Z,41.65
2022-12-08T22:19:31.945Z,43.20
2022-12-08T22:24:32.552Z,39.30
2022-12-08T22:29:32.327Z,40.10
2022-12-08T22:34:42.224Z,38.38
2022-12-08T22:39:50.591Z,40.28
2022-12-08T22:44:49.766Z,44.95
2022-12-08T22:49:53.576Z,42.95
2022-12-08T22:54:52.791Z,43.50
2022-12-08T22:59:51.744Z,42.45
2022-12-08T23:04:56.750Z,45.08
2022-12-08T23:09:56.489Z,44.42
2022-12-08T23:14:55.572Z,44.25
2022-12-08T23:19:58.795Z,43.95
2022-12-08T23:29:58.116Z,39.63
2022-12-08T23:34:59.011Z,40.92
2022-12-08T23:39:58.180Z,39.17
2022-12-08T23:44:57.511Z,44.42
2022-12-08T23:49:59.035Z,46.28
2022-12-08T23:54:59.887Z,45.00
2022-12-08T23:59:59.299Z,47.95
